レイキャビク/ケフラヴィーク の空港の天気 - METARとTAF

ケフラヴィーク国際空港 ( BIKF / KEF ) - アイスランド ケプラヴィーク
飛行場実況気象(Metar)
観測時間12/08 09:30 GMT (12/08 09:30 UTC)
風向・風速東 5m/s
視程10km以上
天気現象弱いしゅう雪
全天の8割程度の雲 雲底高度 430m
気温1℃
湿度86%
気圧995hPa
METARBIKF 080930Z 10010KT 9999 -SHSN BKN014CB 01/M01 Q0995
過去の天気等 Google飛行場航空写真 Wunderground天気予報

過去48時間のMETAR

飛行場予報(TAF)
発表時間: 12/08 07:45 GMT (12/08 07:45 UTC)
予報対象時間: 8日9時 GMT ~ 9日9時 GMT
風向・風速東南東 6m/s
視程10km以上
全天の4割程度の雲 雲底高度 610m
全天の8割程度の雲 雲底高度 910m
8日9時 GMT ~ 8日14時 GMT に一時的に
風向・風速東南東 9m/s 瞬間風速 15m/s
視程1000m
天気現象しゅう雪
全天の8割程度の積乱雲 雲底高度 300m
8日14時 GMT ~ 8日16時 GMT に徐々に
風向・風速南東 12m/s
8日14時 GMT ~ 8日24時 GMT に一時的に
風向・風速南東 15m/s 瞬間風速 21m/s
視程2000m
天気現象しゅう雪雨
全天の8割程度の塔状積雲 雲底高度 240m
9日0時 GMT ~ 9日7時 GMT に一時的に
風向・風速南東 15m/s 瞬間風速 21m/s
視程3000m
天気現象雨雪
全天の8割程度の雲 雲底高度 240m
全天を覆う雲 雲底高度 370m
9日7時 GMT ~ 9日9時 GMT に徐々に
風向・風速東 5m/s
TAF BIKF 080745Z 0809/0909 11012KT 9999 SCT020 BKN030 TX03/0818Z TNM01/0809Z
TEMPO 0809/0814 11018G30KT 1000 SHSN BKN010CB
BECMG 0814/0816 14023KT
TEMPO 0814/0900 13030G40KT 2000 SHSNRA BKN008TCU
TEMPO 0900/0907 14030G40KT 3000 RASN BKN008 OVC012
BECMG 0907/0909 09010KT